createdAt,value
2022-12-19T00:01:35.106Z,9.93
2022-12-19T00:04:07.971Z,11.45
2022-12-19T00:06:39.211Z,8.15
2022-12-19T00:09:13.141Z,11.15
2022-12-19T00:11:41.359Z,7.65
2022-12-19T00:14:12.413Z,9.30
2022-12-19T00:16:40.520Z,9.52
2022-12-19T00:19:10.671Z,9.88
2022-12-19T00:21:39.543Z,8.25
2022-12-19T00:24:16.260Z,8.68
2022-12-19T00:26:50.515Z,9.63
2022-12-19T00:29:18.400Z,8.60
2022-12-19T00:31:46.398Z,8.73
2022-12-19T00:34:15.882Z,8.55
2022-12-19T00:36:43.722Z,10.15
2022-12-19T00:39:11.979Z,10.57
2022-12-19T00:41:41.856Z,9.32
2022-12-19T00:44:17.403Z,8.98
2022-12-19T00:46:52.283Z,9.98
2022-12-19T00:49:21.569Z,10.88
2022-12-19T00:51:49.721Z,10.30
2022-12-19T00:54:17.953Z,11.00
2022-12-19T00:56:46.211Z,9.48
2022-12-19T00:59:14.151Z,11.55
2022-12-19T01:01:43.531Z,11.68
2022-12-19T01:04:33.510Z,10.90
2022-12-19T01:07:05.964Z,9.82
2022-12-19T01:09:36.258Z,10.45
2022-12-19T01:12:25.145Z,9.93
2022-12-19T01:15:02.883Z,9.80
2022-12-19T01:17:44.038Z,9.68
2022-12-19T01:20:28.981Z,8.65
2022-12-19T01:22:59.925Z,8.75
2022-12-19T01:25:28.756Z,9.15
2022-12-19T01:27:58.806Z,9.25
2022-12-19T01:30:27.683Z,10.38
2022-12-19T01:32:58.446Z,9.00
2022-12-19T01:35:38.018Z,10.07
2022-12-19T01:38:08.157Z,10.38
2022-12-19T01:40:38.061Z,9.40
2022-12-19T01:43:06.433Z,10.20
2022-12-19T01:45:42.139Z,10.27
2022-12-19T01:48:34.442Z,8.48
2022-12-19T01:51:24.637Z,8.30
2022-12-19T01:53:59.270Z,8.93
2022-12-19T01:56:32.008Z,8.38
2022-12-19T01:59:16.648Z,8.40
2022-12-19T02:01:51.011Z,8.50
2022-12-19T02:04:27.113Z,8.93
2022-12-19T02:07:07.487Z,11.57
2022-12-19T02:10:14.342Z,8.90
2022-12-19T02:12:46.001Z,8.73
2022-12-19T02:15:17.130Z,7.75
2022-12-19T02:18:20.139Z,9.27
2022-12-19T02:21:15.647Z,8.07
2022-12-19T02:24:21.423Z,7.55
2022-12-19T02:27:11.354Z,8.13
2022-12-19T02:29:45.328Z,9.05
2022-12-19T02:32:36.300Z,9.95
2022-12-19T02:35:30.488Z,8.38
2022-12-19T02:40:33.299Z,9.10
2022-12-19T02:43:03.239Z,7.72
2022-12-19T02:45:36.188Z,9.30
2022-12-19T02:48:08.828Z,10.38
2022-12-19T02:50:44.522Z,11.35
2022-12-19T02:53:16.737Z,9.80
2022-12-19T02:56:09.403Z,8.93
2022-12-19T03:00:41.116Z,12.27
2022-12-19T03:03:23.638Z,11.55
2022-12-19T03:06:14.323Z,14.88
2022-12-19T03:09:01.004Z,14.60
2022-12-19T03:11:35.307Z,13.00
2022-12-19T03:14:08.516Z,12.75
2022-12-19T03:16:37.519Z,18.70
2022-12-19T03:19:12.007Z,16.42
2022-12-19T03:21:50.074Z,11.50
2022-12-19T03:24:19.747Z,11.90
2022-12-19T03:26:54.536Z,13.95
2022-12-19T03:29:30.422Z,11.65
2022-12-19T03:32:01.930Z,16.23
2022-12-19T03:34:41.231Z,11.20
2022-12-19T03:37:15.495Z,11.93
2022-12-19T03:39:48.146Z,12.52
2022-12-19T03:42:37.295Z,13.18
2022-12-19T03:45:07.274Z,12.55
2022-12-19T03:47:40.629Z,13.00
2022-12-19T03:50:09.569Z,13.52
2022-12-19T03:52:49.682Z,9.48
2022-12-19T04:06:18.882Z,11.43
2022-12-19T04:08:47.424Z,13.23
2022-12-19T04:11:20.347Z,16.23
2022-12-19T04:13:53.593Z,12.60
2022-12-19T04:16:29.601Z,14.45
2022-12-19T04:19:05.858Z,14.40
2022-12-19T04:21:43.649Z,19.80
2022-12-19T04:24:18.897Z,14.52
2022-12-19T04:26:50.110Z,13.90
2022-12-19T04:29:18.948Z,13.63
2022-12-19T04:31:48.321Z,33.17
2022-12-19T04:34:21.214Z,56.92
2022-12-19T04:36:51.170Z,40.75
2022-12-19T04:39:19.085Z,22.58
2022-12-19T04:41:47.016Z,15.27
2022-12-19T04:44:14.878Z,35.85
2022-12-19T04:46:42.954Z,27.42
2022-12-19T04:49:10.831Z,29.00
2022-12-19T04:51:38.917Z,27.15
2022-12-19T04:54:07.113Z,28.23
2022-12-19T04:56:34.963Z,16.85
2022-12-19T04:59:02.944Z,15.20
2022-12-19T05:01:30.937Z,14.95
2022-12-19T05:04:04.240Z,14.20
2022-12-19T05:06:32.734Z,14.80
2022-12-19T05:09:00.838Z,16.85
2022-12-19T05:11:28.954Z,24.52
2022-12-19T05:13:59.534Z,14.63
2022-12-19T05:16:27.657Z,16.58
2022-12-19T05:18:56.103Z,15.82
2022-12-19T05:21:24.138Z,14.93
2022-12-19T05:23:51.955Z,14.77
2022-12-19T05:26:20.256Z,15.48
2022-12-19T05:28:49.024Z,13.75
2022-12-19T05:31:22.920Z,20.83
2022-12-19T05:33:51.143Z,15.98
2022-12-19T05:36:19.124Z,15.75
2022-12-19T05:38:47.474Z,17.10
2022-12-19T05:41:18.387Z,16.85
2022-12-19T05:43:50.525Z,15.13
2022-12-19T05:46:18.949Z,14.60
2022-12-19T05:48:47.795Z,17.25
2022-12-19T05:51:16.563Z,15.70
2022-12-19T05:53:45.030Z,16.27
2022-12-19T05:56:16.629Z,18.88
2022-12-19T05:58:45.529Z,14.95
2022-12-19T06:01:15.805Z,14.63
2022-12-19T06:03:44.673Z,16.42
2022-12-19T06:06:15.017Z,15.70
2022-12-19T06:08:43.630Z,13.73
2022-12-19T06:11:13.328Z,19.33
2022-12-19T06:13:42.151Z,19.25
2022-12-19T06:16:15.333Z,17.63
2022-12-19T06:18:45.460Z,25.02
2022-12-19T06:21:16.963Z,25.15
2022-12-19T06:23:45.810Z,33.92
2022-12-19T06:26:19.610Z,26.35
2022-12-19T06:28:52.936Z,15.25
2022-12-19T06:31:23.213Z,18.60
2022-12-19T06:33:51.539Z,17.88
2022-12-19T06:36:22.850Z,19.15
2022-12-19T06:38:51.452Z,16.88
2022-12-19T06:41:38.643Z,16.70
2022-12-19T06:44:08.911Z,18.90
2022-12-19T06:46:38.195Z,35.63
2022-12-19T06:49:08.719Z,35.53
2022-12-19T06:51:37.559Z,18.52
2022-12-19T06:54:06.055Z,17.52
2022-12-19T06:56:38.347Z,20.23
2022-12-19T06:59:07.406Z,22.40
2022-12-19T07:02:00.451Z,19.50
2022-12-19T07:04:36.010Z,18.60
2022-12-19T07:12:02.143Z,15.77
2022-12-19T07:14:30.022Z,19.08
2022-12-19T07:17:00.687Z,18.25
2022-12-19T07:19:30.798Z,17.25
2022-12-19T07:22:01.068Z,23.60
2022-12-19T07:24:30.091Z,18.60
2022-12-19T07:26:58.774Z,36.25
2022-12-19T07:29:27.091Z,18.10
2022-12-19T07:31:55.338Z,17.35
2022-12-19T07:34:23.485Z,20.00
2022-12-19T07:36:51.400Z,17.70
2022-12-19T07:39:19.493Z,16.30
2022-12-19T07:41:47.715Z,14.57
2022-12-19T07:44:16.835Z,16.63
2022-12-19T07:46:45.389Z,14.07
2022-12-19T07:49:16.982Z,16.10
2022-12-19T07:51:47.577Z,20.08
2022-12-19T07:54:15.402Z,16.88
2022-12-19T07:56:43.406Z,19.30
2022-12-19T07:59:13.263Z,22.70
2022-12-19T08:01:41.274Z,16.30
2022-12-19T08:04:09.511Z,26.05
2022-12-19T08:06:41.087Z,18.05
2022-12-19T08:09:09.952Z,18.60
2022-12-19T08:11:37.854Z,17.85
2022-12-19T08:14:05.984Z,19.38
2022-12-19T08:16:49.343Z,18.17
2022-12-19T08:19:27.174Z,18.35
2022-12-19T08:21:55.562Z,19.55
2022-12-19T08:24:23.539Z,17.65
2022-12-19T08:26:51.684Z,21.60
2022-12-19T08:29:19.655Z,20.58
2022-12-19T08:31:47.859Z,22.35
2022-12-19T08:34:15.916Z,21.92
2022-12-19T08:36:43.874Z,20.73
2022-12-19T08:39:11.867Z,20.05
2022-12-19T08:41:39.897Z,21.60
2022-12-19T08:44:11.371Z,21.17
2022-12-19T08:46:42.468Z,30.02
2022-12-19T08:49:13.131Z,23.17
2022-12-19T08:51:41.232Z,15.93
2022-12-19T08:54:11.940Z,15.85
2022-12-19T08:56:42.246Z,15.85
2022-12-19T08:59:22.740Z,15.85
2022-12-19T09:02:01.181Z,19.90
2022-12-19T09:06:00.194Z,20.25
2022-12-19T09:07:19.320Z,17.33
2022-12-19T09:09:47.529Z,23.60
2022-12-19T09:12:17.001Z,20.73
2022-12-19T09:14:45.105Z,22.17
2022-12-19T09:17:13.710Z,32.10
2022-12-19T09:19:47.071Z,28.67
2022-12-19T09:22:16.836Z,19.42
2022-12-19T09:24:45.886Z,17.17
2022-12-19T09:27:14.127Z,23.80
2022-12-19T09:29:43.784Z,19.90
2022-12-19T09:32:14.356Z,20.20
2022-12-19T09:34:42.552Z,18.63
2022-12-19T09:37:15.984Z,20.55
2022-12-19T09:39:48.832Z,16.23
2022-12-19T09:42:40.679Z,19.33
2022-12-19T09:45:53.060Z,14.13
2022-12-19T09:48:24.701Z,18.90
2022-12-19T10:06:46.123Z,14.13
2022-12-19T10:10:08.563Z,19.08
2022-12-19T10:12:39.854Z,16.27
2022-12-19T10:15:08.738Z,16.63
2022-12-19T10:17:48.963Z,20.70
2022-12-19T10:20:24.898Z,19.23
2022-12-19T10:23:01.879Z,15.95
2022-12-19T10:25:39.286Z,15.63
2022-12-19T10:28:44.971Z,17.85
2022-12-19T10:31:21.874Z,19.80
2022-12-19T10:34:22.143Z,15.93
2022-12-19T10:40:17.645Z,19.35
2022-12-19T10:45:50.804Z,18.58
2022-12-19T10:48:31.068Z,20.58
2022-12-19T10:51:02.503Z,15.18
2022-12-19T10:53:35.351Z,17.33
2022-12-19T10:56:14.327Z,13.00
2022-12-19T10:58:44.621Z,14.65
2022-12-19T11:01:16.700Z,16.50
2022-12-19T11:03:50.254Z,15.65
2022-12-19T11:06:48.527Z,16.98
2022-12-19T11:10:03.740Z,14.80
2022-12-19T11:16:58.306Z,15.40
2022-12-19T11:20:29.219Z,18.17
2022-12-19T11:29:26.733Z,19.77
2022-12-19T11:29:39.075Z,16.00
2022-12-19T11:29:46.778Z,17.35
2022-12-19T11:30:43.088Z,14.85
2022-12-19T11:33:19.263Z,11.00
2022-12-19T11:35:54.852Z,12.75
2022-12-19T11:38:53.668Z,12.30
2022-12-19T11:41:49.139Z,12.25
2022-12-19T11:44:32.870Z,12.35
2022-12-19T11:47:19.174Z,16.20
2022-12-19T11:49:58.656Z,10.40
2022-12-19T11:55:57.624Z,14.40
2022-12-19T11:58:31.596Z,14.48
2022-12-19T12:01:17.552Z,13.77
2022-12-19T12:04:06.751Z,17.10
2022-12-19T12:06:46.265Z,15.43
2022-12-19T12:13:38.107Z,15.20
2022-12-19T12:20:04.357Z,14.68
2022-12-19T12:28:03.530Z,17.80
2022-12-19T12:31:14.946Z,13.70
2022-12-19T12:31:29.991Z,13.07
2022-12-19T12:31:46.928Z,13.68
2022-12-19T12:32:05.399Z,15.32
2022-12-19T12:35:40.502Z,12.25
2022-12-19T12:41:19.786Z,14.68
2022-12-19T12:44:08.075Z,17.13
2022-12-19T12:46:44.169Z,14.52
2022-12-19T12:49:24.451Z,15.93
2022-12-19T12:51:53.515Z,17.98
2022-12-19T12:54:26.148Z,14.27
2022-12-19T12:56:55.515Z,23.52
2022-12-19T13:02:06.990Z,18.08
2022-12-19T13:04:42.516Z,14.52
2022-12-19T13:07:28.640Z,17.65
2022-12-19T13:10:33.012Z,15.57
2022-12-19T13:13:17.482Z,18.85
2022-12-19T13:15:49.332Z,15.38
2022-12-19T13:18:33.147Z,14.68
2022-12-19T13:21:03.735Z,14.13
2022-12-19T13:23:43.417Z,13.68
2022-12-19T13:26:42.930Z,14.68
2022-12-19T13:29:34.507Z,16.48
2022-12-19T13:32:14.212Z,16.85
2022-12-19T13:35:40.898Z,17.58
2022-12-19T13:39:58.317Z,20.42
2022-12-19T13:41:02.287Z,17.02
2022-12-19T13:43:49.139Z,22.02
2022-12-19T13:46:45.231Z,17.17
2022-12-19T13:49:35.583Z,17.10
2022-12-19T13:52:05.216Z,14.52
2022-12-19T13:54:51.857Z,19.63
2022-12-19T13:57:30.068Z,16.45
2022-12-19T14:00:02.415Z,26.10
2022-12-19T14:02:44.066Z,19.42
2022-12-19T14:06:16.140Z,19.65
2022-12-19T14:08:26.555Z,21.88
2022-12-19T14:11:37.566Z,18.80
2022-12-19T14:14:16.074Z,20.80
2022-12-19T14:16:46.537Z,18.05
2022-12-19T14:19:29.150Z,21.90
2022-12-19T14:22:25.815Z,20.63
2022-12-19T14:25:23.370Z,17.00
2022-12-19T14:28:18.954Z,20.23
2022-12-19T14:30:50.123Z,16.05
2022-12-19T14:33:46.718Z,16.40
2022-12-19T14:36:25.653Z,23.63
2022-12-19T14:39:22.370Z,19.17
2022-12-19T14:42:05.057Z,18.88
2022-12-19T14:54:00.855Z,15.65
2022-12-19T14:54:06.784Z,18.38
2022-12-19T14:54:15.969Z,15.52
2022-12-19T14:54:50.653Z,12.48
2022-12-19T14:56:56.093Z,17.33
2022-12-19T14:59:17.933Z,17.17
2022-12-19T15:01:53.930Z,20.65
2022-12-19T15:04:47.968Z,21.27
2022-12-19T15:07:23.023Z,17.83
2022-12-19T15:09:51.060Z,17.52
2022-12-19T15:14:47.630Z,15.38
2022-12-19T15:16:06.602Z,21.00
2022-12-19T15:18:34.632Z,15.50
2022-12-19T15:21:05.294Z,17.08
2022-12-19T15:23:33.541Z,17.60
2022-12-19T15:26:06.105Z,20.50
2022-12-19T15:28:44.592Z,22.70
2022-12-19T15:31:26.549Z,19.70
2022-12-19T15:36:43.505Z,20.92
2022-12-19T15:39:11.467Z,15.10
2022-12-19T15:41:39.490Z,13.82
2022-12-19T15:44:14.540Z,14.07
2022-12-19T15:46:48.351Z,17.48
2022-12-19T15:49:21.553Z,21.90
2022-12-19T15:51:50.662Z,29.98
2022-12-19T15:57:31.101Z,25.95
2022-12-19T16:00:02.445Z,20.02
2022-12-19T16:08:21.992Z,18.48
2022-12-19T16:13:48.958Z,24.33
2022-12-19T16:16:17.652Z,25.38
2022-12-19T16:18:45.940Z,21.58
2022-12-19T16:21:33.215Z,25.83
2022-12-19T16:24:02.338Z,24.33
2022-12-19T16:26:36.221Z,19.90
2022-12-19T16:29:06.880Z,19.42
2022-12-19T16:31:35.778Z,30.90
2022-12-19T16:34:14.982Z,29.35
2022-12-19T16:36:44.456Z,23.42
2022-12-19T16:41:43.150Z,26.67
2022-12-19T16:44:22.123Z,31.08
2022-12-19T16:46:52.002Z,21.63
2022-12-19T16:49:25.419Z,21.67
2022-12-19T16:51:53.801Z,22.50
2022-12-19T16:54:22.427Z,17.27
2022-12-19T16:56:54.517Z,16.40
2022-12-19T16:59:37.562Z,18.17
2022-12-19T17:02:33.531Z,20.58
2022-12-19T17:05:02.077Z,27.45
2022-12-19T17:07:32.203Z,13.85
2022-12-19T17:10:01.157Z,27.85
2022-12-19T17:12:29.883Z,25.55
2022-12-19T17:14:59.535Z,26.45
2022-12-19T17:17:28.110Z,23.50
2022-12-19T17:19:56.454Z,21.73
2022-12-19T17:22:24.999Z,30.65
2022-12-19T17:24:53.402Z,29.02
2022-12-19T17:27:23.679Z,24.67
2022-12-19T17:29:52.246Z,25.50
2022-12-19T17:32:24.363Z,29.55
2022-12-19T17:34:53.507Z,22.63
2022-12-19T17:37:22.189Z,20.30
2022-12-19T17:39:50.663Z,26.70
2022-12-19T17:42:23.686Z,25.17
2022-12-19T17:44:52.549Z,23.20
2022-12-19T17:47:21.328Z,23.05
2022-12-19T17:49:50.316Z,23.13
2022-12-19T17:52:20.323Z,23.05
2022-12-19T17:54:48.846Z,25.48
2022-12-19T17:57:18.282Z,24.15
2022-12-19T17:59:47.076Z,22.95
2022-12-19T18:02:26.823Z,28.58
2022-12-19T18:04:55.401Z,15.77
2022-12-19T18:07:24.055Z,18.83
2022-12-19T18:09:52.576Z,17.00
2022-12-19T18:12:21.350Z,20.58
2022-12-19T18:14:49.856Z,22.00
2022-12-19T18:17:25.684Z,21.63
2022-12-19T18:19:55.131Z,23.20
2022-12-19T18:22:23.862Z,18.95
2022-12-19T18:24:52.316Z,19.42
2022-12-19T18:27:20.843Z,16.83
2022-12-19T18:29:50.221Z,15.00
2022-12-19T18:32:22.373Z,16.98
2022-12-19T18:34:51.118Z,15.50
2022-12-19T18:37:21.941Z,12.48
2022-12-19T18:39:55.915Z,14.68
2022-12-19T18:42:24.610Z,18.00
2022-12-19T18:44:53.390Z,10.88
2022-12-19T18:47:23.937Z,10.25
2022-12-19T18:49:53.099Z,12.10
2022-12-19T18:52:21.738Z,13.50
2022-12-19T18:54:50.511Z,13.27
2022-12-19T18:57:19.004Z,11.63
2022-12-19T18:59:48.979Z,12.82
2022-12-19T19:02:28.521Z,15.20
2022-12-19T19:04:57.390Z,11.38
2022-12-19T19:07:25.482Z,12.25
2022-12-19T19:09:54.511Z,10.32
2022-12-19T19:12:45.593Z,8.02
2022-12-19T19:15:14.106Z,13.20
2022-12-19T19:17:42.945Z,12.23
2022-12-19T19:20:11.834Z,16.88
2022-12-19T19:22:40.568Z,16.05
2022-12-19T19:25:09.626Z,18.25
2022-12-19T19:27:39.885Z,26.45
2022-12-19T19:30:10.337Z,19.63
2022-12-19T19:32:50.103Z,19.58
2022-12-19T19:35:22.418Z,23.20
2022-12-19T19:37:52.905Z,13.65
2022-12-19T19:40:21.753Z,14.50
2022-12-19T19:42:50.145Z,12.57
2022-12-19T19:45:18.563Z,12.32
2022-12-19T19:47:47.160Z,13.60
2022-12-19T19:50:15.795Z,13.95
2022-12-19T19:52:44.263Z,9.77
2022-12-19T19:55:14.995Z,12.40
2022-12-19T19:57:43.615Z,11.57
2022-12-19T20:00:12.804Z,13.82
2022-12-19T20:02:42.365Z,4.82
2022-12-19T20:07:40.303Z,15.25
2022-12-19T20:10:10.668Z,15.35
2022-12-19T20:12:40.016Z,19.55
2022-12-19T20:15:09.391Z,12.80
2022-12-19T20:17:38.141Z,23.08
2022-12-19T20:20:08.082Z,12.10
2022-12-19T20:22:36.729Z,20.08
2022-12-19T20:25:05.714Z,18.20
2022-12-19T20:27:34.055Z,15.52
2022-12-19T20:30:02.473Z,23.77
2022-12-19T20:32:31.295Z,24.23
2022-12-19T20:34:59.869Z,15.13
2022-12-19T20:37:28.224Z,20.73
2022-12-19T20:39:56.826Z,14.63
2022-12-19T20:42:24.983Z,19.45
2022-12-19T20:44:53.342Z,21.90
2022-12-19T20:47:22.155Z,23.25
2022-12-19T20:49:50.975Z,18.80
2022-12-19T20:52:19.219Z,16.52
2022-12-19T20:54:47.215Z,14.07
2022-12-19T20:57:15.241Z,15.90
2022-12-19T20:59:43.579Z,18.08
2022-12-19T21:02:12.288Z,15.93
2022-12-19T21:04:40.955Z,20.27
2022-12-19T21:07:09.279Z,22.38
2022-12-19T21:09:37.461Z,20.58
2022-12-19T21:12:05.707Z,19.95
2022-12-19T21:14:33.913Z,17.17
2022-12-19T21:17:01.931Z,28.88
2022-12-19T21:19:30.139Z,14.18
2022-12-19T21:21:58.054Z,16.70
2022-12-19T21:24:26.493Z,23.05
2022-12-19T21:26:57.922Z,21.67
2022-12-19T21:29:26.392Z,22.65
2022-12-19T21:31:54.447Z,20.63
2022-12-19T21:34:22.604Z,21.48
2022-12-19T21:36:50.569Z,17.30
2022-12-19T21:39:20.801Z,24.25
2022-12-19T21:41:48.956Z,27.95
2022-12-19T21:44:16.889Z,20.08
2022-12-19T21:46:45.176Z,21.13
2022-12-19T21:49:13.297Z,20.88
2022-12-19T21:51:42.282Z,21.95
2022-12-19T21:54:10.214Z,21.95
2022-12-19T21:56:40.122Z,22.70
2022-12-19T21:59:15.039Z,25.25
2022-12-19T22:01:44.960Z,14.75
2022-12-19T22:04:22.871Z,14.57
2022-12-19T22:06:51.942Z,13.90
2022-12-19T22:09:27.791Z,13.90
2022-12-19T22:20:02.650Z,18.30
2022-12-19T22:22:30.577Z,16.52
2022-12-19T22:24:58.506Z,15.40
2022-12-19T22:27:26.497Z,15.40
2022-12-19T22:29:54.583Z,12.88
2022-12-19T22:32:22.606Z,13.88
2022-12-19T22:34:50.552Z,11.02
2022-12-19T22:37:18.619Z,14.57
2022-12-19T22:39:46.442Z,17.48
2022-12-19T22:42:14.587Z,11.82
2022-12-19T22:44:42.467Z,10.13
2022-12-19T22:47:10.428Z,15.07
2022-12-19T22:49:38.738Z,14.90
2022-12-19T22:52:06.715Z,13.60
2022-12-19T22:54:34.651Z,17.73
2022-12-19T22:57:02.745Z,10.48
2022-12-19T22:59:30.654Z,13.30
2022-12-19T23:01:58.717Z,10.45
2022-12-19T23:04:26.646Z,13.65
2022-12-19T23:06:54.654Z,13.35
2022-12-19T23:09:22.638Z,14.20
2022-12-19T23:11:50.689Z,13.13
2022-12-19T23:14:20.259Z,12.85
2022-12-19T23:16:48.707Z,11.60
2022-12-19T23:19:17.288Z,19.58
2022-12-19T23:21:45.767Z,11.80
2022-12-19T23:24:13.929Z,15.52
2022-12-19T23:26:42.727Z,15.18
2022-12-19T23:29:13.677Z,17.92
2022-12-19T23:31:44.434Z,12.68
2022-12-19T23:34:13.195Z,10.85
2022-12-19T23:39:29.211Z,11.57
2022-12-19T23:41:57.198Z,13.10
2022-12-19T23:44:25.343Z,14.13
2022-12-19T23:46:56.561Z,9.32
2022-12-19T23:49:29.174Z,13.63
2022-12-19T23:51:57.118Z,13.10
2022-12-19T23:54:25.264Z,10.60
2022-12-19T23:56:53.759Z,13.02
2022-12-19T23:59:21.770Z,13.48
